createdAt,value
2022-10-24T00:01:33.635Z,4.93
2022-10-24T00:04:02.651Z,6.72
2022-10-24T00:06:34.047Z,4.88
2022-10-24T00:09:03.649Z,3.00
2022-10-24T00:11:30.399Z,3.58
2022-10-24T00:14:03.686Z,5.07
2022-10-24T00:16:32.998Z,10.02
2022-10-24T00:18:59.733Z,4.82
2022-10-24T00:21:26.436Z,2.67
2022-10-24T00:23:55.256Z,3.60
2022-10-24T00:26:21.962Z,10.18
2022-10-24T00:28:48.798Z,6.78
2022-10-24T00:31:21.583Z,3.42
2022-10-24T00:33:50.992Z,7.75
2022-10-24T00:36:21.659Z,7.75
2022-10-24T00:38:49.282Z,7.18
2022-10-24T00:41:19.945Z,6.70
2022-10-24T00:43:47.308Z,3.72
2022-10-24T00:46:20.227Z,4.20
2022-10-24T00:48:56.454Z,9.60
2022-10-24T00:51:32.934Z,7.65
2022-10-24T00:54:10.158Z,5.60
2022-10-24T00:56:44.537Z,11.05
2022-10-24T00:59:14.119Z,6.53
2022-10-24T01:01:47.780Z,5.78
2022-10-24T01:04:14.879Z,6.32
2022-10-24T01:07:06.077Z,5.18
2022-10-24T01:09:39.734Z,11.45
2022-10-24T01:12:38.892Z,7.50
2022-10-24T01:15:23.939Z,6.22
2022-10-24T01:18:03.014Z,11.65
2022-10-24T01:20:42.924Z,8.50
2022-10-24T01:23:42.884Z,8.50
2022-10-24T01:26:30.856Z,4.70
2022-10-24T01:29:04.485Z,9.80
2022-10-24T01:31:36.350Z,7.43
2022-10-24T01:34:14.917Z,7.03
2022-10-24T01:36:55.071Z,6.20
2022-10-24T01:39:25.894Z,5.95
2022-10-24T01:41:54.232Z,9.82
2022-10-24T01:44:39.532Z,6.32
2022-10-24T01:47:15.958Z,6.72
2022-10-24T01:49:48.464Z,4.13
2022-10-24T01:52:16.637Z,7.93
2022-10-24T01:54:44.768Z,10.38
2022-10-24T01:57:13.186Z,4.45
2022-10-24T01:59:43.928Z,8.73
2022-10-24T02:02:28.069Z,7.72
2022-10-24T02:05:04.029Z,11.93
2022-10-24T02:07:33.715Z,6.97
2022-10-24T02:10:08.006Z,10.13
2022-10-24T02:12:44.432Z,12.88
2022-10-24T02:15:35.118Z,9.73
2022-10-24T02:18:02.624Z,5.82
2022-10-24T02:20:43.120Z,12.10
2022-10-24T02:23:28.857Z,5.60
2022-10-24T02:26:00.175Z,2.40
2022-10-24T02:28:31.665Z,7.53
2022-10-24T02:31:10.215Z,5.03
2022-10-24T02:33:44.092Z,11.25
2022-10-24T02:36:15.598Z,7.68
2022-10-24T02:38:51.029Z,8.73
2022-10-24T02:41:25.206Z,6.72
2022-10-24T02:43:52.811Z,8.45
2022-10-24T02:46:21.058Z,5.85
2022-10-24T02:48:53.203Z,3.92
2022-10-24T02:51:22.584Z,8.75
2022-10-24T02:53:52.605Z,10.73
2022-10-24T02:56:21.891Z,5.43
2022-10-24T02:58:50.750Z,6.63
2022-10-24T03:01:19.885Z,6.85
2022-10-24T03:03:49.324Z,4.47
2022-10-24T03:06:18.924Z,7.50
2022-10-24T03:08:45.742Z,7.57
2022-10-24T03:11:13.364Z,8.38
2022-10-24T03:13:40.043Z,8.00
2022-10-24T03:16:09.083Z,5.15
2022-10-24T03:18:38.442Z,6.28
2022-10-24T03:21:09.759Z,9.02
2022-10-24T03:23:38.743Z,9.93
2022-10-24T03:26:05.592Z,6.72
2022-10-24T03:28:35.292Z,5.55
2022-10-24T03:31:04.505Z,6.07
2022-10-24T03:33:31.741Z,8.27
2022-10-24T03:35:59.472Z,6.20
2022-10-24T03:38:26.551Z,6.68
2022-10-24T03:40:55.364Z,11.40
2022-10-24T03:43:24.745Z,12.63
2022-10-24T03:45:51.399Z,11.07
2022-10-24T03:48:20.484Z,8.77
2022-10-24T03:50:51.913Z,11.52
2022-10-24T03:53:23.245Z,7.25
2022-10-24T03:55:53.171Z,11.35
2022-10-24T03:58:24.605Z,7.43
2022-10-24T04:00:51.366Z,7.63
2022-10-24T04:03:20.597Z,16.48
2022-10-24T04:05:47.343Z,7.65
2022-10-24T04:08:16.407Z,10.48
2022-10-24T04:10:45.401Z,11.77
2022-10-24T04:13:16.668Z,8.88
2022-10-24T04:15:48.042Z,11.10
2022-10-24T04:18:17.310Z,12.90
2022-10-24T04:20:46.435Z,7.40
2022-10-24T04:23:15.573Z,6.65
2022-10-24T04:25:42.313Z,11.50
2022-10-24T04:28:11.865Z,9.93
2022-10-24T04:33:14.855Z,6.97
2022-10-24T04:35:50.271Z,9.65
2022-10-24T04:38:17.239Z,7.35
2022-10-24T04:40:52.379Z,6.68
2022-10-24T04:43:20.603Z,9.82
2022-10-24T04:45:52.618Z,6.95
2022-10-24T04:50:46.829Z,6.20
2022-10-24T04:53:16.206Z,7.82
2022-10-24T04:55:44.264Z,6.47
2022-10-24T04:58:15.930Z,4.80
2022-10-24T05:00:49.736Z,7.97
2022-10-24T05:03:18.166Z,6.72
2022-10-24T05:05:45.413Z,11.20
2022-10-24T05:08:14.341Z,6.35
2022-10-24T05:10:41.181Z,6.90
2022-10-24T05:13:10.424Z,5.75
2022-10-24T05:15:37.141Z,7.25
2022-10-24T05:18:04.748Z,4.28
2022-10-24T05:20:34.118Z,6.35
2022-10-24T05:23:03.756Z,8.20
2022-10-24T05:25:30.555Z,5.65
2022-10-24T05:27:57.294Z,6.13
2022-10-24T05:30:28.781Z,8.50
2022-10-24T05:32:55.556Z,12.38
2022-10-24T05:35:22.288Z,9.15
2022-10-24T05:37:48.984Z,6.90
2022-10-24T05:40:18.200Z,7.80
2022-10-24T05:42:47.322Z,10.68
2022-10-24T05:45:14.284Z,16.50
2022-10-24T05:47:43.435Z,17.75
2022-10-24T05:50:11.116Z,19.77
2022-10-24T05:52:46.200Z,12.68
2022-10-24T05:55:18.080Z,12.90
2022-10-24T05:57:48.329Z,11.90
2022-10-24T06:00:18.955Z,11.52
2022-10-24T06:05:18.398Z,8.55
2022-10-24T06:07:48.727Z,6.75
2022-10-24T06:10:18.120Z,8.52
2022-10-24T06:12:45.140Z,10.55
2022-10-24T06:15:14.407Z,5.68
2022-10-24T06:17:41.234Z,12.30
2022-10-24T06:20:11.067Z,10.02
2022-10-24T06:22:40.279Z,15.10
2022-10-24T06:25:07.199Z,10.70
2022-10-24T06:27:36.085Z,7.05
2022-10-24T06:30:05.388Z,12.95
2022-10-24T06:32:32.324Z,16.65
2022-10-24T06:34:59.057Z,11.38
2022-10-24T06:37:25.856Z,10.85
2022-10-24T06:39:52.607Z,26.55
2022-10-24T06:42:19.333Z,19.73
2022-10-24T06:44:51.322Z,8.27
2022-10-24T06:49:49.541Z,9.10
2022-10-24T06:52:18.720Z,11.02
2022-10-24T06:54:53.736Z,15.48
2022-10-24T06:57:20.398Z,14.52
2022-10-24T06:59:47.207Z,14.23
2022-10-24T07:02:15.780Z,12.98
2022-10-24T07:04:47.336Z,12.13
2022-10-24T07:07:19.359Z,10.38
2022-10-24T07:14:52.505Z,8.40
2022-10-24T07:17:19.774Z,8.10
2022-10-24T07:19:51.768Z,6.55
2022-10-24T07:24:55.158Z,9.10
2022-10-24T07:27:25.883Z,7.78
2022-10-24T07:29:55.720Z,8.98
2022-10-24T07:32:22.404Z,8.73
2022-10-24T07:34:53.505Z,5.40
2022-10-24T07:37:22.419Z,8.40
2022-10-24T07:39:49.139Z,10.55
2022-10-24T07:42:18.919Z,9.23
2022-10-24T07:44:46.079Z,9.10
2022-10-24T07:47:12.842Z,14.68
2022-10-24T07:49:41.807Z,10.85
2022-10-24T07:52:08.829Z,8.50
2022-10-24T07:54:37.269Z,5.88
2022-10-24T07:57:04.519Z,7.82
2022-10-24T07:59:41.726Z,13.43
2022-10-24T08:02:14.196Z,8.77
2022-10-24T08:04:43.716Z,9.90
2022-10-24T08:07:14.221Z,6.55
2022-10-24T08:09:42.658Z,12.10
2022-10-24T08:12:12.068Z,11.15
2022-10-24T08:14:41.722Z,10.20
2022-10-24T08:17:08.617Z,9.07
2022-10-24T08:19:43.681Z,9.48
2022-10-24T08:22:11.950Z,11.02
2022-10-24T08:24:38.652Z,9.63
2022-10-24T08:27:05.377Z,7.25
2022-10-24T08:29:32.113Z,7.78
2022-10-24T08:31:58.878Z,10.07
2022-10-24T08:34:25.595Z,11.05
2022-10-24T08:36:52.365Z,9.55
2022-10-24T08:39:19.810Z,5.90
2022-10-24T08:42:00.242Z,12.48
2022-10-24T08:44:29.628Z,9.90
2022-10-24T08:47:03.435Z,10.13
2022-10-24T08:49:35.911Z,9.82
2022-10-24T08:52:21.434Z,9.57
2022-10-24T08:54:50.413Z,11.32
2022-10-24T08:57:24.916Z,6.47
2022-10-24T08:59:57.519Z,4.85
2022-10-24T09:02:27.477Z,8.35
2022-10-24T09:05:00.200Z,6.80
2022-10-24T09:07:27.563Z,7.38
2022-10-24T09:10:10.726Z,6.65
2022-10-24T09:12:40.148Z,6.85
2022-10-24T09:15:25.983Z,5.72
2022-10-24T09:17:56.998Z,4.25
2022-10-24T09:20:33.461Z,6.90
2022-10-24T09:23:04.551Z,5.32
2022-10-24T09:25:36.431Z,7.10
2022-10-24T09:30:36.034Z,7.55
2022-10-24T09:33:19.556Z,5.65
2022-10-24T09:35:51.206Z,6.78
2022-10-24T09:38:26.476Z,8.05
2022-10-24T09:40:57.257Z,7.30
2022-10-24T09:43:43.925Z,6.72
2022-10-24T09:46:15.082Z,7.45
2022-10-24T09:49:08.835Z,6.57
2022-10-24T09:51:41.454Z,5.22
2022-10-24T09:54:20.531Z,5.70
2022-10-24T09:57:02.438Z,8.68
2022-10-24T09:59:42.196Z,7.95
2022-10-24T10:02:19.936Z,10.00
2022-10-24T10:05:04.080Z,6.65
2022-10-24T10:07:39.320Z,6.68
2022-10-24T10:10:23.228Z,4.97
2022-10-24T10:13:06.804Z,5.75
2022-10-24T10:15:58.163Z,5.85
2022-10-24T10:18:29.618Z,7.00
2022-10-24T10:21:06.733Z,7.43
2022-10-24T10:23:38.560Z,5.68
2022-10-24T10:26:08.291Z,9.70
2022-10-24T10:28:41.325Z,6.32
2022-10-24T10:31:10.227Z,4.53
2022-10-24T10:33:58.661Z,6.82
2022-10-24T10:36:37.444Z,3.92
2022-10-24T10:39:24.910Z,5.47
2022-10-24T10:42:00.407Z,5.78
2022-10-24T10:45:07.831Z,6.05
2022-10-24T10:47:59.376Z,4.93
2022-10-24T10:50:56.803Z,2.55
2022-10-24T10:53:48.969Z,6.10
2022-10-24T10:56:40.184Z,4.05
2022-10-24T10:59:31.552Z,4.35
2022-10-24T11:02:10.496Z,2.17
2022-10-24T11:04:58.617Z,5.72
2022-10-24T11:07:37.248Z,4.10
2022-10-24T11:10:14.252Z,2.00
2022-10-24T11:12:47.669Z,2.90
2022-10-24T11:15:32.897Z,4.10
2022-10-24T11:18:06.551Z,2.25
2022-10-24T11:20:42.356Z,2.03
2022-10-24T11:23:30.587Z,4.40
2022-10-24T11:26:05.956Z,6.25
2022-10-24T11:28:57.627Z,4.07
2022-10-24T11:31:30.083Z,2.85
2022-10-24T11:34:15.243Z,3.85
2022-10-24T11:36:55.826Z,3.63
2022-10-24T11:39:27.680Z,6.47
2022-10-24T11:41:54.310Z,3.17
2022-10-24T11:44:38.492Z,2.83
2022-10-24T11:47:25.444Z,7.55
2022-10-24T11:50:17.483Z,5.72
2022-10-24T11:52:54.036Z,3.65
2022-10-24T11:55:25.082Z,5.75
2022-10-24T11:57:55.449Z,4.97
2022-10-24T12:00:40.961Z,4.05
2022-10-24T12:03:26.464Z,1.80
2022-10-24T12:06:14.257Z,4.57
2022-10-24T12:08:52.117Z,3.78
2022-10-24T12:11:28.309Z,3.20
2022-10-24T12:17:22.442Z,2.55
2022-10-24T12:19:53.049Z,3.78
2022-10-24T12:25:20.098Z,2.65
2022-10-24T12:27:54.952Z,2.22
2022-10-24T12:30:26.442Z,5.80
2022-10-24T12:33:28.269Z,5.13
2022-10-24T12:35:57.329Z,2.15
2022-10-24T12:38:32.210Z,5.38
2022-10-24T12:41:06.945Z,2.78
2022-10-24T12:43:39.161Z,2.67
2022-10-24T12:46:18.854Z,3.40
2022-10-24T12:48:58.309Z,4.93
2022-10-24T12:51:36.996Z,7.45
2022-10-24T12:54:03.664Z,7.90
2022-10-24T12:56:34.999Z,4.80
2022-10-24T12:59:19.360Z,6.60
2022-10-24T13:01:47.663Z,6.32
2022-10-24T13:04:36.993Z,8.18
2022-10-24T13:07:15.626Z,7.07
2022-10-24T13:10:06.021Z,6.40
2022-10-24T13:12:56.805Z,4.60
2022-10-24T13:15:32.170Z,4.00
2022-10-24T13:18:22.688Z,4.43
2022-10-24T13:21:10.323Z,4.22
2022-10-24T13:23:40.112Z,4.18
2022-10-24T13:26:26.839Z,4.75
2022-10-24T13:28:53.585Z,4.45
2022-10-24T13:31:20.251Z,4.00
2022-10-24T13:33:47.613Z,2.95
2022-10-24T13:36:20.514Z,1.45
2022-10-24T13:39:04.763Z,3.03
2022-10-24T13:41:39.349Z,4.85
2022-10-24T13:44:12.132Z,3.53
2022-10-24T13:46:48.997Z,4.72
2022-10-24T13:49:44.767Z,5.50
2022-10-24T13:52:17.346Z,7.45
2022-10-24T13:54:47.856Z,2.55
2022-10-24T13:57:35.901Z,3.63
2022-10-24T14:00:08.611Z,2.75
2022-10-24T14:02:45.795Z,4.95
2022-10-24T14:05:37.026Z,2.28
2022-10-24T14:08:05.418Z,2.90
2022-10-24T14:10:32.450Z,2.83
2022-10-24T14:13:00.351Z,2.05
2022-10-24T14:15:31.807Z,3.38
2022-10-24T14:17:58.495Z,1.48
2022-10-24T14:20:33.930Z,1.98
2022-10-24T14:23:15.406Z,3.28
2022-10-24T14:25:44.425Z,1.42
2022-10-24T14:28:27.921Z,2.30
2022-10-24T14:31:01.748Z,3.55
2022-10-24T14:33:33.201Z,1.40
2022-10-24T14:36:02.818Z,3.00
2022-10-24T14:38:30.120Z,1.55
2022-10-24T14:41:08.793Z,1.25
2022-10-24T14:43:42.626Z,2.25
2022-10-24T14:46:14.888Z,0.80
2022-10-24T14:48:51.261Z,2.05
2022-10-24T14:51:31.844Z,2.80
2022-10-24T14:54:05.445Z,3.75
2022-10-24T14:56:40.105Z,4.28
2022-10-24T14:59:18.553Z,4.28
2022-10-24T15:01:55.304Z,3.38
2022-10-24T15:04:31.745Z,1.70
2022-10-24T15:07:11.816Z,3.20
2022-10-24T15:10:01.365Z,2.90
2022-10-24T15:12:33.353Z,5.57
2022-10-24T15:15:25.409Z,3.13
2022-10-24T15:17:59.784Z,3.25
2022-10-24T15:20:32.707Z,4.00
2022-10-24T15:23:05.223Z,4.35
2022-10-24T15:25:39.312Z,4.10
2022-10-24T15:28:43.093Z,4.57
2022-10-24T15:31:11.540Z,3.47
2022-10-24T15:33:45.961Z,4.35
2022-10-24T15:36:20.310Z,5.25
2022-10-24T15:38:48.545Z,7.70
2022-10-24T15:41:17.617Z,4.80
2022-10-24T15:43:44.401Z,3.85
2022-10-24T15:46:13.958Z,6.50
2022-10-24T15:48:42.915Z,3.83
2022-10-24T15:51:15.461Z,4.00
2022-10-24T15:53:42.377Z,3.55
2022-10-24T15:56:12.709Z,3.95
2022-10-24T15:58:42.413Z,7.90
2022-10-24T16:01:26.991Z,5.32
2022-10-24T16:03:56.398Z,4.68
2022-10-24T16:06:23.314Z,3.10
2022-10-24T16:08:50.852Z,3.42
2022-10-24T16:11:17.805Z,4.53
2022-10-24T16:13:44.705Z,4.60
2022-10-24T16:16:14.033Z,5.35
2022-10-24T16:18:40.746Z,5.80
2022-10-24T16:21:07.838Z,3.45
2022-10-24T16:23:42.407Z,3.40
2022-10-24T16:26:11.011Z,6.68
2022-10-24T16:28:37.853Z,5.40
2022-10-24T16:31:05.924Z,7.13
2022-10-24T16:33:33.155Z,5.63
2022-10-24T16:36:00.029Z,4.55
2022-10-24T16:38:26.931Z,5.68
2022-10-24T16:40:58.597Z,7.25
2022-10-24T16:43:27.485Z,4.95
2022-10-24T16:46:01.754Z,5.95
2022-10-24T16:48:30.842Z,8.13
2022-10-24T16:51:00.028Z,7.22
2022-10-24T16:53:29.113Z,3.83
2022-10-24T16:55:55.922Z,9.07
2022-10-24T16:58:25.240Z,7.88
2022-10-24T17:01:03.292Z,6.00
2022-10-24T17:03:32.986Z,9.55
2022-10-24T17:06:02.422Z,6.35
2022-10-24T17:08:31.790Z,12.27
2022-10-24T17:10:58.927Z,15.63
2022-10-24T17:13:25.794Z,11.13
2022-10-24T17:15:55.302Z,9.50
2022-10-24T17:18:23.545Z,6.35
2022-10-24T17:21:00.169Z,7.28
2022-10-24T17:23:29.490Z,5.68
2022-10-24T17:25:56.379Z,5.25
2022-10-24T17:28:28.506Z,4.50
2022-10-24T17:31:11.141Z,5.18
2022-10-24T17:33:38.207Z,6.25
2022-10-24T17:36:14.408Z,4.82
2022-10-24T17:38:53.913Z,5.28
2022-10-24T17:41:30.789Z,5.95
2022-10-24T17:44:00.713Z,7.32
2022-10-24T17:46:27.553Z,4.85
2022-10-24T17:48:54.741Z,5.78
2022-10-24T17:51:32.332Z,5.25
2022-10-24T17:53:59.006Z,5.68
2022-10-24T17:56:27.991Z,6.00
2022-10-24T17:58:57.161Z,5.43
2022-10-24T18:01:28.891Z,6.78
2022-10-24T18:03:55.683Z,7.10
2022-10-24T18:06:24.816Z,6.28
2022-10-24T18:08:57.189Z,7.82
2022-10-24T18:11:23.925Z,5.50
2022-10-24T18:13:52.868Z,3.67
2022-10-24T18:16:27.350Z,3.95
2022-10-24T18:18:56.916Z,3.75
2022-10-24T18:21:28.413Z,4.00
2022-10-24T18:23:57.849Z,6.78
2022-10-24T18:26:26.834Z,7.18
2022-10-24T18:28:58.788Z,8.15
2022-10-24T18:33:58.171Z,9.40
2022-10-24T18:36:30.187Z,4.23
2022-10-24T18:41:30.733Z,11.68
2022-10-24T18:44:02.058Z,3.22
2022-10-24T18:46:31.731Z,10.23
2022-10-24T18:49:03.135Z,7.70
2022-10-24T18:51:34.733Z,19.63
2022-10-24T18:54:06.884Z,5.75
2022-10-24T18:56:34.165Z,8.85
2022-10-24T18:59:07.001Z,0.45
2022-10-24T19:01:42.203Z,2.67
2022-10-24T19:04:29.355Z,4.45
2022-10-24T19:06:59.117Z,3.10
2022-10-24T19:09:28.453Z,1.63
2022-10-24T19:11:55.484Z,1.83
2022-10-24T19:14:25.183Z,4.65
2022-10-24T19:16:52.798Z,0.95
2022-10-24T19:19:27.859Z,7.38
2022-10-24T19:21:54.656Z,14.82
2022-10-24T19:24:21.326Z,12.85
2022-10-24T19:26:52.907Z,6.20
2022-10-24T19:29:19.561Z,8.35
2022-10-24T19:31:48.800Z,7.57
2022-10-24T19:34:17.802Z,3.13
2022-10-24T19:36:46.862Z,14.48
2022-10-24T19:39:18.253Z,12.77
2022-10-24T19:41:47.468Z,21.65
2022-10-24T19:44:14.994Z,14.73
2022-10-24T19:46:44.279Z,19.45
2022-10-24T19:49:13.534Z,10.18
2022-10-24T19:51:42.597Z,11.85
2022-10-24T19:54:09.372Z,10.20
2022-10-24T19:56:36.339Z,10.30
2022-10-24T19:59:03.109Z,11.45
2022-10-24T20:01:32.721Z,6.20
2022-10-24T20:04:02.721Z,10.85
2022-10-24T20:06:32.125Z,15.23
2022-10-24T20:09:01.515Z,11.85
2022-10-24T20:11:30.849Z,15.75
2022-10-24T20:13:59.855Z,6.95
2022-10-24T20:16:26.660Z,5.95
2022-10-24T20:18:53.570Z,16.67
2022-10-24T20:21:20.482Z,3.15
2022-10-24T20:23:53.733Z,3.30
2022-10-24T20:26:25.800Z,6.10
2022-10-24T20:28:54.850Z,9.75
2022-10-24T20:31:33.839Z,9.45
2022-10-24T20:34:07.133Z,12.35
2022-10-24T20:36:35.194Z,6.90
2022-10-24T20:39:02.025Z,7.28
2022-10-24T20:41:31.819Z,4.75
2022-10-24T20:44:00.932Z,8.40
2022-10-24T20:46:27.674Z,4.95
2022-10-24T20:48:59.047Z,11.73
2022-10-24T20:51:28.369Z,9.18
2022-10-24T20:53:55.324Z,5.05
2022-10-24T20:56:26.587Z,6.30
2022-10-24T20:58:55.366Z,13.40
2022-10-24T21:01:27.023Z,18.15
2022-10-24T21:03:57.453Z,8.48
2022-10-24T21:06:29.050Z,2.63
2022-10-24T21:08:58.321Z,9.18
2022-10-24T21:11:27.846Z,7.22
2022-10-24T21:14:06.377Z,3.15
2022-10-24T21:16:34.729Z,10.48
2022-10-24T21:19:02.230Z,5.75
2022-10-24T21:21:31.593Z,3.22
2022-10-24T21:24:03.938Z,7.35
2022-10-24T21:26:38.276Z,4.55
2022-10-24T21:29:14.645Z,4.50
2022-10-24T21:31:54.579Z,8.85
2022-10-24T21:34:21.458Z,3.88
2022-10-24T21:36:53.363Z,3.75
2022-10-24T21:41:46.925Z,1.88
2022-10-24T21:44:18.297Z,5.75
2022-10-24T21:46:45.035Z,6.47
2022-10-24T21:49:14.959Z,7.15
2022-10-24T21:51:43.764Z,5.20
2022-10-24T21:54:22.723Z,4.60
2022-10-24T21:56:54.118Z,5.45
2022-10-24T21:59:23.608Z,4.57
2022-10-24T22:01:51.942Z,5.70
2022-10-24T22:04:20.657Z,4.60
2022-10-24T22:06:47.589Z,6.18
2022-10-24T22:09:23.561Z,3.33
2022-10-24T22:11:55.283Z,4.90
2022-10-24T22:14:26.860Z,11.27
2022-10-24T22:16:58.324Z,8.38
2022-10-24T22:19:27.209Z,3.55
2022-10-24T22:21:58.488Z,13.13
2022-10-24T22:24:25.577Z,12.80
2022-10-24T22:26:57.355Z,28.10
2022-10-24T22:29:27.134Z,17.25
2022-10-24T22:31:58.951Z,17.00
2022-10-24T22:34:26.525Z,12.73
2022-10-24T22:37:11.164Z,8.90
2022-10-24T22:39:38.587Z,10.13
2022-10-24T22:42:09.474Z,12.23
2022-10-24T22:44:36.719Z,7.88
2022-10-24T22:47:33.512Z,6.15
2022-10-24T22:50:10.880Z,5.07
2022-10-24T22:52:37.894Z,9.00
2022-10-24T22:55:21.319Z,5.10
2022-10-24T22:57:48.291Z,7.93
2022-10-24T23:00:15.608Z,10.05
2022-10-24T23:02:48.122Z,11.82
2022-10-24T23:05:34.596Z,12.80
2022-10-24T23:08:12.093Z,11.02
2022-10-24T23:10:39.926Z,20.38
2022-10-24T23:13:06.948Z,44.92
2022-10-24T23:15:33.939Z,37.20
2022-10-24T23:18:00.885Z,20.35
2022-10-24T23:20:35.461Z,10.55
2022-10-24T23:23:16.127Z,13.98
2022-10-24T23:25:50.059Z,1.60
2022-10-24T23:28:29.393Z,22.75
2022-10-24T23:30:56.420Z,23.23
2022-10-24T23:33:29.336Z,25.10
2022-10-24T23:36:00.012Z,8.50
2022-10-24T23:38:29.639Z,8.05
2022-10-24T23:40:56.762Z,11.32
2022-10-24T23:43:25.978Z,6.38
2022-10-24T23:46:15.925Z,10.27
2022-10-24T23:48:53.441Z,5.10
2022-10-24T23:51:40.835Z,3.80
2022-10-24T23:54:12.640Z,16.70
2022-10-24T23:56:39.749Z,22.15
2022-10-24T23:59:06.529Z,11.25
